x

Boston 16 Nm East Of Boston, Ma (44013) Wave Buoy

9:50am - Wed 16th Apr 2014 All times are EDT. -4 hours from GMT.

  • Sig Wave height 5.2ft
  • Swell Direction
  • Peak Period 4s
  • Average Period 4s
  • Wind
    27mph, 31mph gusts
  • Sea Temp 40°f
  • Air Temp 32°f
  • Sea Pressure 1022.6mb
  • Boston 16 Nm East Of Boston, Ma
  • Boston 16 Nm East Of Boston, Ma

More Historic Weather Station data

Upgrade to MSW Pro to gain access to the past 30 days of data for over 8000 Wavebouys and Weather Stations around the globe.

Join Pro

Comparision Forecast

View Surf forecast
   
Wed 04/16 9:50am 5ft 4s 4s 27 31 mph 1022.6mb 40f 32f
8:50am 5.5ft 5s 4s 31 38 mph 1021mb 40f 32f
7:50am 5ft 4s 4s 34 40 mph 1019.1mb 40f 32f
6:50am 4ft 4s 4s 29 38 mph 1015.9mb 40f 34f
5:50am 3.5ft 4s 4s 27 34 mph 1014.1mb 40f 35f
4:50am 3.5ft 8s 4s 25 29 mph 1011.9mb 40f 35f
3:50am 3.5ft 4s 4s 22 29 mph 1010.4mb 40f 37f
2:50am 3.5ft 4s 4s 22 27 mph 1008.3mb 41f 39f
1:50am 4ft 4s 4s 25 29 mph 1007.7mb 41f 40f
12:50am 3.5ft 3s 4s 25 31 mph 1006.4mb 41f 42f
Tue 04/15 11:50pm 3.5ft 5s 4s 22 25 mph 1004.8mb 41f 45f
10:50pm 4ft 6s 5s 18 22 mph 1003mb 41f 48f
9:50pm 4.5ft 6s 4s 20 25 mph 1001.9mb 41f 53f
8:50pm 4.5ft 5s 4s 18 25 mph 1002.2mb 41f 51f
7:50pm 4.5ft 6s 5s 20 27 mph 1002.4mb 41f 53f
6:50pm 4.5ft 5s 4s 20 25 mph 1003mb 41f 52f
5:50pm 4.5ft 5s 4s 25 34 mph 1003.3mb 41f 54f
4:50pm 4.5ft 5s 4s 29 36 mph 1003.4mb 41f 56f
3:50pm 4.5ft 5s 4s 27 34 mph 1003.8mb 41f 55f
2:50pm 4.5ft 5s 4s 31 40 mph 1004.3mb 41f 58f
1:50pm 4.5ft 5s 4s 27 34 mph 1005.7mb 42f 56f
12:50pm 4.5ft 5s 4s 31 43 mph 1005.4mb 42f 59f
11:50am 3.5ft 5s 4s 27 31 mph 1007mb 42f 57f
10:50am 3.5ft 4s 4s 22 29 mph 1008.5mb 42f 54f
9:50am 3ft 6s 4s 22 27 mph 1009.4mb 42f 52f
8:50am 2.5ft 6s 4s 18 20 mph 1010mb 42f 52f
7:50am 3ft 6s 4s 11 16 mph 1011.2mb 42f 47f
6:50am 3ft 4s 4s 11 13 mph 1012mb 42f 48f
5:50am 3.5ft 4s 4s 11 13 mph 1012mb 42f 52f
4:50am 3.5ft 5s 4s 16
mph
1012.4mb 42f 54f
3:50am 3ft 4s 4s 16 20 mph 1012.2mb 42f 54f
2:50am 3.5ft 5s 4s 16 18 mph 1012.5mb 42f 54f
1:50am 3.5ft 5s 4s 18 22 mph 1012.3mb 42f 55f
12:50am 3.5ft 5s 4s 18 22 mph 1013mb 42f 54f
Mon 04/14 11:50pm 3.5ft 4s 4s 18 22 mph 1012.9mb 42f 54f
10:50pm 3.5ft 4s 4s 20 25 mph 1013.1mb 42f 54f
9:50pm 3.5ft 4s 4s 20 25 mph 1013.3mb 43f 54f
8:50pm 3.5ft 4s 4s 22 27 mph 1013.4mb 43f 55f
7:50pm 3.5ft 4s 4s 20 25 mph 1013.2mb 43f 55f
6:50pm 4ft 4s 4s 29 34 mph 1012.2mb 43f 58f
5:50pm 4.5ft 4s 4s 25 31 mph 1012.8mb 43f 58f
4:50pm 3.5ft 5s 4s 25 36 mph 1013.2mb 43f 60f
3:50pm 4ft 4s 4s 25 29 mph 1013.8mb 43f 60f
2:50pm 4ft 4s 4s 29 38 mph 1013.6mb 43f 62f
1:50pm 3.5ft 5s 4s 25 29 mph 1014mb 43f 59f
12:50pm 3ft 4s 4s 18 22 mph 1014.3mb 43f 57f
11:50am 3ft 4s 4s 20 22 mph 1014.9mb 43f 56f
10:50am 3ft 4s 4s 18 20 mph 1015.3mb 43f 54f
9:50am 2.5ft 6s 4s 20 25 mph 1015.5mb 43f 55f
8:50am 3ft 4s 4s 22 27 mph 1015.3mb 43f 54f
7:50am 3ft 3s 4s 25 31 mph 1015.4mb 43f 54f
6:50am 3ft 4s 4s 20 22 mph 1015.6mb 43f 54f
5:50am 2.5ft 4s 4s 18 20 mph 1015.6mb 43f 53f
4:50am 2.5ft 4s 4s 18 20 mph 1015.8mb 43f 53f
3:50am 2.5ft 3s 4s 13 16 mph 1016.5mb 42f 52f
2:50am 2.5ft 4s 4s 13 16 mph 1016.5mb 42f 51f
1:50am 2.5ft 5s 4s 16 18 mph 1016.6mb 42f 52f
12:50am 2.5ft 4s 4s 13 18 mph 1016.9mb 42f 51f
Sun 04/13 11:50pm 2.5ft 5s 4s 11 18 mph 1017.1mb 42f 50f
10:50pm 2.5ft 5s 4s 13
mph
1017.6mb 42f 51f
9:50pm 2.5ft 5s 4s 13 18 mph 1017.5mb 42f 52f
8:50pm 2.5ft 5s 4s 9 11 mph 1017.8mb 42f 49f
7:50pm 2.5ft 4s 4s 13 16 mph 1017.3mb 42f 50f
6:50pm 2.5ft 4s 4s 13 16 mph 1017mb 42f 50f
5:50pm 2.5ft 4s 4s 11 13 mph 1017.9mb 42f 48f
4:50pm 2.5ft 3s 3s 20 22 mph 1017.7mb 42f 48f
3:50pm 1.6ft 3s 3s 16 18 mph 1019.6mb 42f 47f
2:50pm 1.6ft 9s 4s 16 18 mph 1020.9mb 42f 47f
1:50pm 1.6ft 8s 4s 13 18 mph 1021.9mb 42f 46f
12:50pm 1.3ft 8s 4s 11 13 mph 1022.8mb 42f 45f
11:50am 1.6ft 8s 4s 7
mph
1024.2mb 42f 43f
10:50am 1.6ft 8s 4s 7
mph
1025.5mb 42f 44f
9:50am 1.6ft 8s 4s 2
mph
1024.8mb 42f 45f
8:50am 1.6ft 9s 5s 11 13 mph 1023.7mb 42f 44f
7:50am 1.6ft 8s 5s 9 11 mph 1024.1mb 42f 44f
6:50am 1.6ft 9s 6s 9 11 mph 1024.4mb 42f 45f
5:50am 1.3ft 8s 6s 7
mph
1024mb 42f 45f
4:50am 1.3ft 8s 5s 4
mph
1024.3mb 42f 48f
3:50am 1.3ft 8s 5s 7
mph
1024mb 42f 46f
2:50am 1.3ft 9s 4s 7
mph
1023.6mb 42f 45f
1:50am 1.3ft 9s 4s 7 9 mph 1023.4mb 42f 47f
12:50am 1.6ft 10s 5s 9
mph
1023.1mb 42f 47f
Sat 04/12 11:50pm 1.6ft 9s 4s 9
mph
1022.9mb 42f 47f
10:50pm 1.6ft 8s 4s 9
mph
1022.9mb 43f 49f
9:50pm 1.6ft 9s 4s 9
mph
1022.6mb 43f 48f
8:50pm 2ft 8s 4s 7 9 mph 1022.2mb 43f 47f
7:50pm 2ft 3s 4s 13 18 mph 1021.3mb 43f 47f
6:50pm 2ft 9s 4s 16 18 mph 1020.8mb 43f 49f
5:50pm 1.6ft 9s 5s 13 16 mph 1020.3mb 44f 48f
4:50pm 1.6ft 8s 7s 11 13 mph 1019.8mb 44f 47f
3:50pm 1.6ft 8s 7s 9 11 mph 1019.9mb 44f 48f
2:50pm 1.3ft 8s 7s 9 11 mph 1020mb 45f 48f